createdAt,value
2017-10-09T00:00:18.453Z,100.00
2017-10-09T00:01:18.486Z,100.00
2017-10-09T00:02:18.525Z,100.00
2017-10-09T00:03:18.534Z,100.00
2017-10-09T00:04:18.580Z,100.00
2017-10-09T00:05:17.915Z,100.00
2017-10-09T00:06:17.239Z,100.00
2017-10-09T00:07:17.279Z,100.00
2017-10-09T00:08:17.299Z,100.00
2017-10-09T00:09:17.342Z,100.00
2017-10-09T00:10:17.400Z,100.00
2017-10-09T00:11:17.354Z,100.00
2017-10-09T00:12:17.391Z,100.00
2017-10-09T00:13:17.332Z,100.00
2017-10-09T00:14:17.372Z,100.00
2017-10-09T00:15:17.305Z,100.00
2017-10-09T00:16:17.952Z,100.00
2017-10-09T00:17:18.041Z,100.00
2017-10-09T00:18:18.178Z,100.00
2017-10-09T00:19:18.520Z,100.00
2017-10-09T00:20:18.403Z,100.00
2017-10-09T00:21:17.955Z,100.00
2017-10-09T00:22:17.304Z,100.00
2017-10-09T00:23:17.303Z,100.00
2017-10-09T00:24:17.349Z,100.00
2017-10-09T00:25:17.396Z,100.00
2017-10-09T00:26:17.387Z,100.00
2017-10-09T00:27:17.314Z,100.00
2017-10-09T00:28:17.342Z,100.00
2017-10-09T00:29:17.367Z,100.00
2017-10-09T00:30:17.406Z,100.00
2017-10-09T00:31:17.343Z,100.00
2017-10-09T00:32:17.976Z,100.00
2017-10-09T00:33:18.602Z,100.00
2017-10-09T00:34:18.227Z,100.00
2017-10-09T00:35:18.252Z,100.00
2017-10-09T00:36:18.587Z,100.00
2017-10-09T00:37:18.626Z,100.00
2017-10-09T00:38:18.658Z,100.00
2017-10-09T00:39:17.987Z,100.00
2017-10-09T00:40:17.407Z,100.00
2017-10-09T00:41:17.433Z,100.00
2017-10-09T00:42:17.455Z,100.00
2017-10-09T00:43:17.377Z,100.00
2017-10-09T00:44:17.415Z,100.00
2017-10-09T00:45:17.445Z,100.00
2017-10-09T00:46:17.392Z,100.00
2017-10-09T00:47:17.407Z,100.00
2017-10-09T00:48:17.431Z,100.00
2017-10-09T00:49:18.050Z,100.00
2017-10-09T00:50:18.300Z,100.00
2017-10-09T00:51:18.622Z,100.00
2017-10-09T00:52:18.651Z,100.00
2017-10-09T00:53:18.687Z,100.00
2017-10-09T00:54:18.733Z,100.00
2017-10-09T00:55:18.175Z,100.00
2017-10-09T00:56:18.097Z,100.00
2017-10-09T00:57:17.425Z,100.00
2017-10-09T00:58:17.359Z,100.00
2017-10-09T00:59:17.504Z,100.00
2017-10-09T01:03:13.727Z,100.00
2017-10-09T01:03:14.541Z,100.00
2017-10-09T01:03:15.353Z,100.00
2017-10-09T01:03:17.469Z,100.00
2017-10-09T01:06:01.793Z,100.00
2017-10-09T01:06:03.213Z,100.00
2017-10-09T01:08:32.897Z,100.00
2017-10-09T01:08:34.319Z,100.00
2017-10-09T01:08:35.136Z,100.00
2017-10-09T01:11:44.673Z,100.00
2017-10-09T01:11:45.485Z,100.00
2017-10-09T01:11:46.296Z,100.00
2017-10-09T01:15:09.649Z,100.00
2017-10-09T01:15:10.604Z,100.00
2017-10-09T01:15:11.422Z,100.00
2017-10-09T01:17:46.709Z,100.00
2017-10-09T01:17:47.522Z,100.00
2017-10-09T01:17:48.233Z,100.00
2017-10-09T01:21:09.804Z,100.00
2017-10-09T01:21:11.273Z,100.00
2017-10-09T01:21:12.186Z,100.00
2017-10-09T01:23:46.656Z,100.00
2017-10-09T01:23:48.067Z,100.00
2017-10-09T01:23:48.885Z,100.00
2017-10-09T01:27:09.927Z,100.00
2017-10-09T01:27:10.762Z,100.00
2017-10-09T01:27:11.572Z,100.00
2017-10-09T01:29:46.841Z,100.00
2017-10-09T01:29:47.646Z,100.00
2017-10-09T01:29:48.355Z,100.00
2017-10-09T01:32:34.706Z,100.00
2017-10-09T01:32:35.547Z,100.00
2017-10-09T01:32:36.369Z,100.00
2017-10-09T01:35:39.734Z,100.00
2017-10-09T01:35:41.154Z,100.00
2017-10-09T01:35:41.964Z,100.00
2017-10-09T01:38:32.915Z,100.00
2017-10-09T01:38:34.336Z,100.00
2017-10-09T01:38:35.039Z,100.00
2017-10-09T01:41:44.783Z,100.00
2017-10-09T01:41:46.206Z,100.00
2017-10-09T01:41:47.018Z,100.00
2017-10-09T01:45:09.846Z,100.00
2017-10-09T01:45:10.591Z,100.00
2017-10-09T01:45:11.504Z,100.00
2017-10-09T01:47:46.983Z,100.00
2017-10-09T01:47:47.995Z,100.00
2017-10-09T01:47:49.013Z,100.00
2017-10-09T01:51:05.087Z,100.00
2017-10-09T01:51:06.557Z,100.00
2017-10-09T01:51:07.828Z,100.00
2017-10-09T01:53:43.788Z,100.00
2017-10-09T01:53:45.310Z,100.00
2017-10-09T01:53:46.122Z,100.00
2017-10-09T01:56:33.033Z,100.00
2017-10-09T01:56:34.460Z,100.00
2017-10-09T01:56:35.061Z,100.00
2017-10-09T01:59:45.910Z,100.00
2017-10-09T01:59:47.332Z,100.00
2017-10-09T01:59:48.142Z,100.00
2017-10-09T02:00:17.619Z,100.00
2017-10-09T02:01:18.854Z,100.00
2017-10-09T02:02:18.271Z,100.00
2017-10-09T02:03:18.313Z,100.00
2017-10-09T02:04:17.631Z,100.00
2017-10-09T02:05:17.658Z,100.00
2017-10-09T02:06:17.699Z,100.00
2017-10-09T02:07:17.656Z,100.00
2017-10-09T02:08:17.675Z,100.00
2017-10-09T02:09:17.715Z,100.00
2017-10-09T02:10:17.740Z,100.00
2017-10-09T02:11:17.682Z,100.00
2017-10-09T02:12:17.705Z,100.00
2017-10-09T02:13:18.333Z,100.00
2017-10-09T02:14:18.874Z,100.00
2017-10-09T02:15:19.020Z,100.00
2017-10-09T02:16:18.965Z,100.00
2017-10-09T02:17:18.905Z,100.00
2017-10-09T02:18:18.327Z,100.00
2017-10-09T02:19:18.370Z,100.00
2017-10-09T02:20:18.388Z,100.00
2017-10-09T02:21:17.718Z,100.00
2017-10-09T02:22:17.748Z,100.00
2017-10-09T02:23:17.713Z,100.00
2017-10-09T02:24:17.752Z,100.00
2017-10-09T02:25:17.780Z,100.00
2017-10-09T02:26:17.807Z,100.00
2017-10-09T02:27:17.751Z,100.00
2017-10-09T02:28:17.780Z,100.00
2017-10-09T02:29:17.747Z,100.00
2017-10-09T02:30:18.399Z,100.00
2017-10-09T02:31:19.030Z,100.00
2017-10-09T02:32:18.973Z,100.00
2017-10-09T02:33:18.579Z,100.00
2017-10-09T02:34:19.037Z,100.00
2017-10-09T02:35:18.361Z,100.00
2017-10-09T02:36:18.396Z,100.00
2017-10-09T02:37:17.740Z,100.00
2017-10-09T02:38:17.769Z,100.00
2017-10-09T02:39:17.789Z,100.00
2017-10-09T02:40:17.826Z,100.00
2017-10-09T02:41:17.760Z,100.00
2017-10-09T02:42:17.784Z,100.00
2017-10-09T02:43:17.834Z,100.00
2017-10-09T02:44:17.855Z,100.00
2017-10-09T02:45:17.815Z,100.00
2017-10-09T02:46:17.847Z,100.00
2017-10-09T02:47:18.474Z,100.00
2017-10-09T02:48:18.496Z,100.00
2017-10-09T02:49:19.076Z,100.00
2017-10-09T02:50:19.038Z,100.00
2017-10-09T02:51:19.079Z,100.00
2017-10-09T02:52:18.417Z,100.00
2017-10-09T02:53:18.472Z,100.00
2017-10-09T02:54:18.503Z,100.00
2017-10-09T02:55:18.557Z,100.00
2017-10-09T02:56:17.884Z,100.00
2017-10-09T02:57:17.825Z,100.00
2017-10-09T02:58:17.868Z,100.00
2017-10-09T02:59:17.902Z,100.00
2017-10-09T03:00:17.868Z,100.00
2017-10-09T03:01:19.441Z,100.00
2017-10-09T03:02:17.924Z,100.00
2017-10-09T03:03:17.863Z,100.00
2017-10-09T03:04:18.490Z,100.00
2017-10-09T03:05:19.118Z,100.00
2017-10-09T03:06:19.058Z,100.00
2017-10-09T03:07:19.097Z,100.00
2017-10-09T03:08:19.130Z,100.00
2017-10-09T03:09:18.756Z,100.00
2017-10-09T03:10:18.483Z,100.00
2017-10-09T03:11:17.896Z,100.00
2017-10-09T03:12:17.864Z,100.00
2017-10-09T03:13:17.896Z,100.00
2017-10-09T03:14:17.929Z,100.00
2017-10-09T03:15:17.975Z,100.00
2017-10-09T03:16:17.899Z,100.00
2017-10-09T03:17:17.933Z,100.00
2017-10-09T03:18:17.887Z,100.00
2017-10-09T03:19:17.899Z,100.00
2017-10-09T03:20:18.567Z,100.00
2017-10-09T03:21:18.587Z,100.00
2017-10-09T03:22:19.112Z,100.00
2017-10-09T03:23:19.144Z,100.00
2017-10-09T03:24:19.167Z,100.00
2017-10-09T03:25:19.281Z,100.00
2017-10-09T03:26:18.505Z,100.00
2017-10-09T03:27:17.935Z,100.00
2017-10-09T03:28:17.954Z,100.00
2017-10-09T03:29:17.987Z,100.00
2017-10-09T03:30:17.932Z,100.00
2017-10-09T03:31:17.963Z,100.00
2017-10-09T03:32:17.996Z,100.00
2017-10-09T03:33:17.935Z,100.00
2017-10-09T03:34:17.989Z,100.00
2017-10-09T03:35:18.018Z,100.00
2017-10-09T03:36:17.947Z,100.00
2017-10-09T03:37:19.168Z,100.00
2017-10-09T03:38:19.191Z,100.00
2017-10-09T03:39:19.223Z,100.00
2017-10-09T03:40:19.253Z,100.00
2017-10-09T03:41:19.172Z,100.00
2017-10-09T03:42:19.228Z,100.00
2017-10-09T03:43:18.648Z,100.00
2017-10-09T03:44:17.977Z,100.00
2017-10-09T03:45:18.734Z,100.00
2017-10-09T03:46:40.598Z,100.00
2017-10-09T03:48:39.730Z,100.00
2017-10-09T03:48:41.149Z,100.00
2017-10-09T03:48:41.960Z,100.00
2017-10-09T03:49:18.036Z,100.00
2017-10-09T03:50:18.658Z,100.00
2017-10-09T03:51:18.595Z,100.00
2017-10-09T03:52:18.616Z,100.00
2017-10-09T03:53:18.641Z,100.00
2017-10-09T03:54:18.661Z,100.00
2017-10-09T03:55:19.293Z,100.00
2017-10-09T03:56:19.321Z,100.00
2017-10-09T03:57:19.251Z,100.00
2017-10-09T03:58:19.276Z,100.00
2017-10-09T03:59:19.307Z,100.00
2017-10-09T04:00:18.768Z,100.00
2017-10-09T04:01:18.710Z,100.00
2017-10-09T04:02:18.043Z,100.00
2017-10-09T04:03:18.086Z,100.00
2017-10-09T04:04:18.105Z,100.00
2017-10-09T04:05:18.148Z,100.00
2017-10-09T04:06:18.086Z,100.00
2017-10-09T04:07:18.123Z,100.00
2017-10-09T04:08:18.074Z,100.00
2017-10-09T04:09:18.093Z,100.00
2017-10-09T04:10:18.119Z,100.00
2017-10-09T04:11:18.743Z,100.00
2017-10-09T04:12:19.275Z,100.00
2017-10-09T04:13:19.393Z,100.00
2017-10-09T04:14:19.324Z,100.00
2017-10-09T04:15:19.561Z,100.00
2017-10-09T04:16:18.676Z,100.00
2017-10-09T04:17:18.704Z,100.00
2017-10-09T04:18:18.117Z,100.00
2017-10-09T04:19:18.142Z,100.00
2017-10-09T04:20:18.172Z,100.00
2017-10-09T04:21:18.099Z,100.00
2017-10-09T04:22:18.127Z,100.00
2017-10-09T04:23:18.176Z,100.00
2017-10-09T04:24:18.200Z,100.00
2017-10-09T04:25:18.148Z,100.00
2017-10-09T04:26:18.073Z,100.00
2017-10-09T04:27:18.096Z,100.00
2017-10-09T04:28:19.341Z,100.00
2017-10-09T04:29:19.367Z,100.00
2017-10-09T04:30:19.393Z,100.00
2017-10-09T04:31:19.319Z,100.00
2017-10-09T04:32:18.743Z,100.00
2017-10-09T04:33:18.778Z,100.00
2017-10-09T04:34:18.811Z,100.00
2017-10-09T04:35:18.836Z,100.00
2017-10-09T04:36:18.055Z,100.00
2017-10-09T04:37:18.183Z,100.00
2017-10-09T04:38:18.216Z,100.00
2017-10-09T04:39:18.245Z,100.00
2017-10-09T04:40:18.183Z,100.00
2017-10-09T04:41:18.201Z,100.00
2017-10-09T04:42:18.229Z,100.00
2017-10-09T04:43:18.143Z,100.00
2017-10-09T04:44:18.861Z,100.00
2017-10-09T04:45:19.391Z,100.00
2017-10-09T04:46:19.417Z,100.00
2017-10-09T04:47:19.445Z,100.00
2017-10-09T04:48:19.968Z,100.00
2017-10-09T04:49:18.181Z,100.00
2017-10-09T04:50:19.413Z,100.00
2017-10-09T04:51:18.832Z,100.00
2017-10-09T04:52:18.250Z,100.00
2017-10-09T04:53:18.181Z,100.00
2017-10-09T04:54:18.213Z,100.00
2017-10-09T04:55:18.267Z,100.00
2017-10-09T04:56:18.213Z,100.00
2017-10-09T04:57:18.245Z,100.00
2017-10-09T04:58:18.299Z,100.00
2017-10-09T04:59:18.272Z,100.00
2017-10-09T05:00:18.268Z,100.00
2017-10-09T05:01:18.931Z,100.00
2017-10-09T05:02:19.470Z,100.00
2017-10-09T05:03:19.451Z,100.00
2017-10-09T05:04:19.471Z,100.00
2017-10-09T05:05:19.477Z,100.00
2017-10-09T05:06:19.636Z,100.00
2017-10-09T05:07:18.863Z,100.00
2017-10-09T05:08:18.261Z,100.00
2017-10-09T05:09:18.304Z,100.00
2017-10-09T05:10:18.288Z,100.00
2017-10-09T05:11:18.351Z,100.00
2017-10-09T05:12:18.290Z,100.00
2017-10-09T05:13:18.332Z,100.00
2017-10-09T05:14:18.280Z,100.00
2017-10-09T05:15:18.354Z,100.00
2017-10-09T05:16:18.305Z,100.00
2017-10-09T05:17:18.304Z,100.00
2017-10-09T05:18:18.936Z,100.00
2017-10-09T05:19:19.568Z,100.00
2017-10-09T05:20:19.501Z,100.00
2017-10-09T05:21:19.560Z,100.00
2017-10-09T05:22:19.605Z,100.00
2017-10-09T05:23:19.581Z,100.00
2017-10-09T05:24:18.909Z,100.00
2017-10-09T05:25:18.986Z,100.00
2017-10-09T05:26:18.322Z,100.00
2017-10-09T05:27:18.361Z,100.00
2017-10-09T05:28:18.387Z,100.00
2017-10-09T05:29:18.318Z,100.00
2017-10-09T05:30:18.364Z,100.00
2017-10-09T05:31:18.401Z,100.00
2017-10-09T05:32:18.330Z,100.00
2017-10-09T05:33:18.363Z,100.00
2017-10-09T05:34:18.408Z,100.00
2017-10-09T05:35:18.428Z,100.00
2017-10-09T05:36:19.591Z,100.00
2017-10-09T05:37:19.628Z,100.00
2017-10-09T05:38:19.582Z,100.00
2017-10-09T05:39:19.613Z,100.00
2017-10-09T05:40:19.585Z,100.00
2017-10-09T05:41:19.630Z,100.00
2017-10-09T05:42:18.354Z,100.00
2017-10-09T05:43:19.202Z,100.00
2017-10-09T05:44:18.429Z,100.00
2017-10-09T05:45:18.270Z,100.00
2017-10-09T05:46:18.416Z,100.00
2017-10-09T05:47:18.362Z,100.00
2017-10-09T05:48:18.398Z,100.00
2017-10-09T05:49:18.434Z,100.00
2017-10-09T05:50:18.482Z,100.00
2017-10-09T05:51:18.415Z,100.00
2017-10-09T05:52:19.065Z,100.00
2017-10-09T05:53:19.601Z,100.00
2017-10-09T05:54:19.674Z,100.00
2017-10-09T05:55:19.624Z,100.00
2017-10-09T05:56:19.687Z,100.00
2017-10-09T05:57:19.634Z,100.00
2017-10-09T05:58:19.065Z,100.00
2017-10-09T05:59:18.390Z,100.00
2017-10-09T06:00:18.439Z,100.00
2017-10-09T06:01:18.447Z,100.00
2017-10-09T06:02:18.415Z,100.00
2017-10-09T06:03:18.481Z,100.00
2017-10-09T06:04:18.512Z,100.00
2017-10-09T06:05:18.469Z,100.00
2017-10-09T06:06:18.496Z,100.00
2017-10-09T06:07:18.525Z,100.00
2017-10-09T06:08:18.453Z,100.00
2017-10-09T06:09:19.383Z,100.00
2017-10-09T06:10:20.829Z,100.00
2017-10-09T06:11:19.664Z,100.00
2017-10-09T06:12:19.718Z,100.00
2017-10-09T06:13:19.746Z,100.00
2017-10-09T06:14:19.059Z,100.00
2017-10-09T06:15:19.085Z,100.00
2017-10-09T06:16:27.214Z,100.00
2017-10-09T06:17:18.537Z,100.00
2017-10-09T06:18:19.770Z,100.00
2017-10-09T06:19:18.487Z,100.00
2017-10-09T06:20:18.517Z,100.00
2017-10-09T06:21:18.555Z,100.00
2017-10-09T06:22:18.485Z,100.00
2017-10-09T06:23:18.503Z,100.00
2017-10-09T06:24:18.540Z,100.00
2017-10-09T06:25:18.571Z,100.00
2017-10-09T06:26:18.493Z,100.00
2017-10-09T06:27:19.729Z,100.00
2017-10-09T06:28:19.754Z,100.00
2017-10-09T06:29:19.789Z,100.00
2017-10-09T06:30:19.825Z,100.00
2017-10-09T06:31:19.853Z,100.00
2017-10-09T06:32:19.173Z,100.00
2017-10-09T06:33:19.205Z,100.00
2017-10-09T06:34:18.528Z,100.00
2017-10-09T06:35:18.571Z,100.00
2017-10-09T06:36:18.605Z,100.00
2017-10-09T06:37:18.550Z,100.00
2017-10-09T06:38:18.571Z,100.00
2017-10-09T06:39:18.588Z,100.00
2017-10-09T06:40:18.625Z,100.00
2017-10-09T06:41:18.559Z,100.00
2017-10-09T06:42:18.577Z,100.00
2017-10-09T06:43:18.553Z,100.00
2017-10-09T06:44:19.787Z,100.00
2017-10-09T06:45:19.810Z,100.00
2017-10-09T06:46:19.835Z,100.00
2017-10-09T06:47:19.807Z,100.00
2017-10-09T06:48:19.867Z,100.00
2017-10-09T06:49:19.197Z,100.00
2017-10-09T06:50:19.237Z,100.00
2017-10-09T06:51:18.566Z,100.00
2017-10-09T06:52:18.605Z,100.00
2017-10-09T06:53:18.629Z,100.00
2017-10-09T06:54:18.662Z,100.00
2017-10-09T06:55:18.698Z,100.00
2017-10-09T06:56:18.630Z,100.00
2017-10-09T06:57:18.665Z,100.00
2017-10-09T06:58:18.689Z,100.00
2017-10-09T06:59:18.630Z,100.00
2017-10-09T07:00:19.282Z,100.00
2017-10-09T07:01:19.906Z,100.00
2017-10-09T07:02:19.935Z,100.00
2017-10-09T07:03:19.867Z,100.00
2017-10-09T07:04:23.995Z,100.00
2017-10-09T07:05:20.104Z,100.00
2017-10-09T07:06:19.971Z,100.00
2017-10-09T07:07:19.300Z,100.00
2017-10-09T07:08:18.644Z,100.00
2017-10-09T07:09:18.690Z,100.00
2017-10-09T07:10:18.726Z,100.00
2017-10-09T07:11:18.682Z,100.00
2017-10-09T07:12:18.729Z,100.00
2017-10-09T07:13:18.665Z,100.00
2017-10-09T07:14:18.681Z,100.00
2017-10-09T07:15:18.737Z,100.00
2017-10-09T07:16:18.692Z,100.00
2017-10-09T07:17:19.441Z,100.00
2017-10-09T07:18:19.889Z,100.00
2017-10-09T07:19:19.956Z,100.00
2017-10-09T07:20:19.992Z,100.00
2017-10-09T07:21:20.043Z,100.00
2017-10-09T07:22:19.332Z,100.00
2017-10-09T07:23:20.573Z,100.00
2017-10-09T07:24:18.745Z,100.00
2017-10-09T07:25:18.784Z,100.00
2017-10-09T07:26:18.772Z,100.00
2017-10-09T07:27:18.756Z,100.00
2017-10-09T07:28:18.746Z,100.00
2017-10-09T07:29:18.750Z,100.00
2017-10-09T07:30:18.762Z,100.00
2017-10-09T07:31:18.694Z,100.00
2017-10-09T07:32:18.742Z,100.00
2017-10-09T07:33:18.770Z,100.00
2017-10-09T07:34:18.716Z,100.00
2017-10-09T07:35:19.966Z,100.00
2017-10-09T07:36:19.512Z,100.00
2017-10-09T07:37:19.551Z,100.00
2017-10-09T07:38:20.092Z,100.00
2017-10-09T07:39:24.475Z,100.00
2017-10-09T07:40:20.054Z,100.00
2017-10-09T07:41:18.740Z,100.00
2017-10-09T07:42:18.779Z,100.00
2017-10-09T07:43:18.736Z,100.00
2017-10-09T07:44:18.775Z,100.00
2017-10-09T07:45:18.836Z,100.00
2017-10-09T07:46:18.772Z,100.00
2017-10-09T07:47:18.809Z,100.00
2017-10-09T07:48:18.768Z,100.00
2017-10-09T07:49:18.805Z,100.00
2017-10-09T07:50:18.844Z,100.00
2017-10-09T07:51:18.873Z,100.00
2017-10-09T07:52:18.814Z,100.00
2017-10-09T07:53:19.496Z,100.00
2017-10-09T07:54:20.020Z,100.00
2017-10-09T07:55:20.072Z,100.00
2017-10-09T07:56:20.022Z,100.00
2017-10-09T07:57:20.071Z,100.00
2017-10-09T07:58:19.400Z,100.00
2017-10-09T07:59:18.829Z,100.00
2017-10-09T08:00:18.889Z,100.00
2017-10-09T08:01:18.829Z,100.00
2017-10-09T08:02:18.964Z,100.00
2017-10-09T08:03:19.039Z,100.00
2017-10-09T08:04:18.876Z,100.00
2017-10-09T08:05:18.912Z,100.00
2017-10-09T08:06:18.852Z,100.00
2017-10-09T08:07:18.887Z,100.00
2017-10-09T08:08:18.925Z,100.00
2017-10-09T08:09:18.877Z,100.00
2017-10-09T08:10:18.913Z,100.00
2017-10-09T08:11:20.050Z,100.00
2017-10-09T08:12:20.090Z,100.00
2017-10-09T08:13:20.126Z,100.00
2017-10-09T08:14:20.101Z,100.00
2017-10-09T08:15:20.204Z,100.00
2017-10-09T08:16:19.535Z,100.00
2017-10-09T08:17:19.576Z,100.00
2017-10-09T08:18:18.910Z,100.00
2017-10-09T08:19:18.856Z,100.00
2017-10-09T08:20:18.917Z,100.00
2017-10-09T08:21:18.857Z,100.00
2017-10-09T08:22:18.909Z,100.00
2017-10-09T08:23:18.846Z,100.00
2017-10-09T08:24:18.890Z,100.00
2017-10-09T08:25:18.960Z,100.00
2017-10-09T08:26:18.898Z,100.00
2017-10-09T08:27:20.151Z,100.00
2017-10-09T08:28:20.418Z,100.00
2017-10-09T08:29:20.157Z,100.00
2017-10-09T08:30:20.151Z,100.00
2017-10-09T08:31:20.179Z,100.00
2017-10-09T08:32:19.537Z,100.00
2017-10-09T08:33:19.546Z,98.44
2017-10-09T08:34:19.623Z,100.00
2017-10-09T08:35:18.996Z,100.00
2017-10-09T08:36:18.935Z,100.00
2017-10-09T08:37:18.990Z,100.00
2017-10-09T08:38:18.984Z,100.00
2017-10-09T08:39:18.962Z,100.00
2017-10-09T08:40:19.026Z,100.00
2017-10-09T08:41:18.969Z,100.00
2017-10-09T08:42:19.013Z,100.00
2017-10-09T08:43:19.008Z,100.00
2017-10-09T08:44:19.364Z,100.00
2017-10-09T08:45:19.164Z,100.00
2017-10-09T08:46:19.012Z,100.00
2017-10-09T08:47:20.184Z,99.67
2017-10-09T08:48:20.235Z,100.00
2017-10-09T08:49:20.186Z,97.99
2017-10-09T08:50:19.622Z,99.00
2017-10-09T08:51:18.967Z,99.67
2017-10-09T08:52:19.031Z,98.23
2017-10-09T08:53:18.982Z,99.00
2017-10-09T08:54:19.075Z,100.00
2017-10-09T08:55:19.030Z,98.08
2017-10-09T08:56:18.982Z,95.23
2017-10-09T08:57:19.045Z,94.13
2017-10-09T08:58:19.217Z,94.90
2017-10-09T08:59:19.019Z,97.78
2017-10-09T09:00:19.076Z,95.68
2017-10-09T09:01:19.077Z,97.38
2017-10-09T09:02:20.232Z,97.44
2017-10-09T09:03:20.278Z,97.14
2017-10-09T09:04:20.263Z,97.44
2017-10-09T09:05:20.355Z,97.73
2017-10-09T09:06:20.229Z,98.63
2017-10-09T09:07:20.271Z,98.14
2017-10-09T09:08:20.360Z,97.17
2017-10-09T09:09:19.038Z,97.72
2017-10-09T09:10:19.740Z,99.13
2017-10-09T09:11:19.078Z,95.59
2017-10-09T09:12:19.030Z,95.46
2017-10-09T09:13:19.086Z,98.46
2017-10-09T09:14:19.026Z,96.51
2017-10-09T09:15:19.137Z,97.84
2017-10-09T09:16:19.075Z,97.71
2017-10-09T09:17:19.125Z,96.46
2017-10-09T09:18:19.113Z,96.40
2017-10-09T09:19:19.066Z,93.62
2017-10-09T09:20:19.840Z,94.49
2017-10-09T09:21:20.335Z,96.02
2017-10-09T09:22:20.425Z,97.59
2017-10-09T09:23:20.277Z,96.11
2017-10-09T09:24:20.330Z,94.56
2017-10-09T09:25:20.395Z,96.38
2017-10-09T09:26:19.736Z,96.24
2017-10-09T09:27:19.119Z,95.38
2017-10-09T09:28:19.128Z,92.97
2017-10-09T09:29:19.132Z,92.92
2017-10-09T09:30:19.107Z,93.10
2017-10-09T09:31:19.159Z,93.24
2017-10-09T09:32:19.107Z,94.56
2017-10-09T09:33:19.163Z,93.74
2017-10-09T09:34:19.128Z,93.03
2017-10-09T09:35:19.201Z,91.41
2017-10-09T09:36:19.145Z,93.72
2017-10-09T09:37:19.806Z,95.45
2017-10-09T09:38:20.382Z,95.72
2017-10-09T09:39:20.459Z,94.32
2017-10-09T09:40:20.437Z,94.71
2017-10-09T09:41:20.379Z,96.67
2017-10-09T09:42:20.408Z,95.32
2017-10-09T09:43:20.479Z,96.18
2017-10-09T09:44:19.821Z,93.16
2017-10-09T09:45:19.871Z,92.21
2017-10-09T09:46:19.191Z,95.60
2017-10-09T09:47:19.209Z,94.99
2017-10-09T09:48:19.148Z,93.47
2017-10-09T09:49:19.210Z,94.39
2017-10-09T09:50:19.279Z,96.02
2017-10-09T09:51:19.227Z,96.32
2017-10-09T09:52:19.201Z,95.78
2017-10-09T09:53:19.159Z,95.48
2017-10-09T09:54:21.427Z,94.62
2017-10-09T09:55:19.260Z,93.67
2017-10-09T09:56:20.442Z,92.76
2017-10-09T09:57:20.398Z,95.54
2017-10-09T09:58:20.435Z,94.59
2017-10-09T09:59:20.478Z,94.20
2017-10-09T10:00:19.828Z,92.91
2017-10-09T10:01:19.198Z,93.64
2017-10-09T10:02:19.258Z,92.36
2017-10-09T10:03:19.248Z,91.37
2017-10-09T10:04:19.262Z,95.13
2017-10-09T10:05:19.317Z,94.82
2017-10-09T10:06:19.282Z,97.70
2017-10-09T10:07:19.279Z,96.15
2017-10-09T10:08:19.226Z,93.50
2017-10-09T10:09:19.309Z,93.81
2017-10-09T10:10:19.339Z,95.21
2017-10-09T10:11:19.229Z,93.79
2017-10-09T10:12:19.900Z,92.03
2017-10-09T10:13:20.507Z,91.76
2017-10-09T10:14:20.548Z,91.16
2017-10-09T10:15:20.503Z,93.17
2017-10-09T10:16:20.543Z,94.33
2017-10-09T10:17:19.875Z,93.08
2017-10-09T10:18:19.920Z,93.10
2017-10-09T10:19:19.962Z,95.82
2017-10-09T10:20:19.337Z,91.93
2017-10-09T10:21:19.344Z,92.30
2017-10-09T10:22:19.293Z,92.83
2017-10-09T10:23:19.330Z,90.80
2017-10-09T10:24:19.276Z,91.63
2017-10-09T10:25:29.165Z,93.54
2017-10-09T10:26:29.547Z,92.54
2017-10-09T10:27:29.340Z,92.82
2017-10-09T10:28:19.336Z,90.51
2017-10-09T10:29:19.917Z,92.17
2017-10-09T10:30:19.967Z,90.23
2017-10-09T10:31:20.526Z,93.45
2017-10-09T10:32:20.520Z,92.76
2017-10-09T10:33:20.565Z,94.75
2017-10-09T10:34:20.566Z,90.65
2017-10-09T10:35:20.625Z,87.90
2017-10-09T10:36:19.999Z,86.56
2017-10-09T10:37:19.318Z,86.44
2017-10-09T10:38:19.403Z,89.94
2017-10-09T10:39:19.347Z,87.18
2017-10-09T10:40:19.398Z,88.46
2017-10-09T10:41:19.359Z,85.57
2017-10-09T10:42:19.328Z,88.15
2017-10-09T10:43:19.379Z,88.15
2017-10-09T10:44:19.331Z,86.45
2017-10-09T10:45:19.370Z,84.40
2017-10-09T10:46:19.416Z,85.99
2017-10-09T10:47:19.451Z,86.07
2017-10-09T10:48:20.610Z,87.88
2017-10-09T10:49:20.639Z,82.14
2017-10-09T10:50:20.682Z,86.08
2017-10-09T10:51:20.644Z,86.09
2017-10-09T10:52:20.703Z,88.56
2017-10-09T10:53:20.691Z,84.75
2017-10-09T10:54:20.770Z,84.02
2017-10-09T10:55:20.123Z,84.74
2017-10-09T10:56:19.475Z,80.92
2017-10-09T10:57:19.411Z,80.31
2017-10-09T10:58:19.449Z,79.31
2017-10-09T10:59:19.442Z,81.34
2017-10-09T11:00:20.903Z,82.43
2017-10-09T11:01:19.465Z,80.00
2017-10-09T11:02:19.404Z,81.76
2017-10-09T11:03:19.439Z,82.79
2017-10-09T11:04:20.066Z,77.66
2017-10-09T11:05:20.628Z,77.21
2017-10-09T11:06:20.702Z,80.71
2017-10-09T11:07:20.632Z,78.98
2017-10-09T11:08:20.674Z,82.22
2017-10-09T11:09:20.763Z,77.20
2017-10-09T11:10:20.027Z,79.57
2017-10-09T11:11:20.073Z,83.14
2017-10-09T11:12:20.123Z,84.24
2017-10-09T11:13:19.448Z,83.21
2017-10-09T11:14:19.509Z,81.67
2017-10-09T11:15:19.497Z,81.91
2017-10-09T11:16:19.530Z,81.94
2017-10-09T11:17:19.475Z,79.45
2017-10-09T11:18:19.548Z,82.20
2017-10-09T11:19:19.497Z,82.50
2017-10-09T11:20:19.526Z,79.42
2017-10-09T11:21:19.561Z,82.52
2017-10-09T11:22:19.507Z,81.13
2017-10-09T11:23:20.758Z,79.73
2017-10-09T11:24:20.722Z,81.09
2017-10-09T11:25:20.697Z,83.25
2017-10-09T11:26:20.743Z,84.11
2017-10-09T11:27:20.100Z,85.23
2017-10-09T11:28:20.160Z,77.33
2017-10-09T11:29:19.501Z,80.42
2017-10-09T11:30:24.497Z,80.41
2017-10-09T11:31:19.544Z,83.75
2017-10-09T11:32:20.500Z,82.46
2017-10-09T11:33:19.478Z,78.26
2017-10-09T11:34:19.554Z,81.86
2017-10-09T11:35:19.506Z,80.16
2017-10-09T11:36:19.552Z,81.59
2017-10-09T11:37:19.594Z,80.68
2017-10-09T11:38:19.542Z,80.39
2017-10-09T11:39:20.189Z,78.59
2017-10-09T11:40:20.224Z,79.17
2017-10-09T11:41:20.859Z,82.75
2017-10-09T11:42:20.810Z,77.78
2017-10-09T11:43:20.858Z,79.53
2017-10-09T11:44:20.825Z,79.43
2017-10-09T11:45:20.831Z,78.78
2017-10-09T11:46:20.267Z,80.19
2017-10-09T11:47:20.251Z,86.45
2017-10-09T11:48:19.640Z,84.93
2017-10-09T11:49:19.586Z,79.47
2017-10-09T11:50:19.575Z,79.30
2017-10-09T11:51:19.623Z,80.19
2017-10-09T11:52:19.669Z,78.39
2017-10-09T11:53:19.655Z,82.24
2017-10-09T11:54:19.631Z,81.31
2017-10-09T11:55:19.611Z,79.98
2017-10-09T11:56:19.658Z,79.80
2017-10-09T11:57:19.623Z,81.49
2017-10-09T11:58:20.870Z,79.16
2017-10-09T11:59:20.823Z,80.53
2017-10-09T12:00:20.874Z,78.04
2017-10-09T12:01:20.923Z,80.96
2017-10-09T12:02:20.873Z,75.11
2017-10-09T12:03:20.207Z,75.23
2017-10-09T12:04:20.267Z,74.47
2017-10-09T12:05:19.631Z,73.19
2017-10-09T12:06:19.693Z,72.50
2017-10-09T12:07:19.628Z,73.74
2017-10-09T12:08:19.688Z,74.22
2017-10-09T12:09:19.640Z,79.30
2017-10-09T12:10:19.690Z,77.58
2017-10-09T12:11:19.734Z,75.28
2017-10-09T12:12:19.667Z,72.71
2017-10-09T12:13:19.699Z,75.78
2017-10-09T12:14:19.634Z,72.80
2017-10-09T12:15:20.166Z,72.91
2017-10-09T12:16:20.948Z,75.57
2017-10-09T12:17:20.891Z,73.46
2017-10-09T12:18:20.856Z,79.16
2017-10-09T12:19:20.898Z,76.55
2017-10-09T12:20:20.635Z,74.73
2017-10-09T12:21:20.363Z,75.80
2017-10-09T12:22:19.705Z,76.17
2017-10-09T12:23:19.743Z,73.61
2017-10-09T12:24:19.707Z,71.24
2017-10-09T12:25:19.752Z,74.19
2017-10-09T12:26:19.719Z,74.86
2017-10-09T12:27:19.778Z,73.44
2017-10-09T12:28:19.746Z,75.36
2017-10-09T12:29:19.712Z,75.29
2017-10-09T12:30:19.762Z,79.84
2017-10-09T12:31:19.842Z,79.15
2017-10-09T12:32:19.766Z,77.19
2017-10-09T12:33:20.938Z,77.17
2017-10-09T12:34:21.033Z,76.10